createdAt,value
2022-12-29T00:02:25.770Z,7.80
2022-12-29T00:04:52.686Z,7.70
2022-12-29T00:07:20.033Z,7.70
2022-12-29T00:09:46.847Z,7.70
2022-12-29T00:12:13.782Z,7.60
2022-12-29T00:14:59.393Z,7.50
2022-12-29T00:17:26.190Z,7.60
2022-12-29T00:20:11.448Z,7.60
2022-12-29T00:22:56.876Z,7.70
2022-12-29T00:25:42.483Z,7.70
2022-12-29T00:28:28.704Z,7.60
2022-12-29T00:31:17.742Z,7.60
2022-12-29T00:34:03.683Z,7.50
2022-12-29T00:36:35.264Z,7.40
2022-12-29T00:39:22.774Z,7.50
2022-12-29T00:42:08.412Z,7.60
2022-12-29T00:44:35.392Z,7.50
2022-12-29T00:47:04.314Z,7.50
2022-12-29T00:49:33.144Z,7.40
2022-12-29T00:52:06.084Z,7.40
2022-12-29T00:54:34.133Z,7.30
2022-12-29T00:57:01.452Z,7.50
2022-12-29T00:59:28.332Z,7.50
2022-12-29T01:01:57.528Z,7.70
2022-12-29T01:04:25.526Z,7.40
2022-12-29T01:06:52.405Z,7.50
2022-12-29T01:09:38.579Z,7.70
2022-12-29T01:12:06.517Z,7.80
2022-12-29T01:14:34.958Z,7.50
2022-12-29T01:17:01.971Z,7.60
2022-12-29T01:19:28.799Z,7.70
2022-12-29T01:21:56.841Z,7.60
2022-12-29T01:24:23.805Z,8.00
2022-12-29T01:26:50.820Z,8.80
2022-12-29T01:29:17.866Z,9.30
2022-12-29T01:31:46.317Z,9.50
2022-12-29T01:34:14.143Z,9.60
2022-12-29T01:36:41.066Z,9.90
2022-12-29T01:39:08.046Z,10.10
2022-12-29T01:41:34.920Z,10.10
2022-12-29T01:44:02.723Z,10.10
2022-12-29T01:46:32.641Z,10.10
2022-12-29T01:48:59.423Z,10.10
2022-12-29T01:51:26.926Z,10.10
2022-12-29T01:53:55.449Z,10.10
2022-12-29T01:56:23.106Z,10.10
2022-12-29T01:58:54.674Z,10.10
2022-12-29T02:01:22.321Z,10.10
2022-12-29T02:03:50.110Z,10.10
2022-12-29T02:06:23.314Z,10.10
2022-12-29T02:08:51.517Z,10.00
2022-12-29T02:11:18.433Z,10.20
2022-12-29T02:13:45.269Z,10.20
2022-12-29T02:16:38.544Z,10.20
2022-12-29T02:19:09.039Z,10.10
2022-12-29T02:21:41.911Z,10.20
2022-12-29T02:24:27.693Z,10.20
2022-12-29T02:26:55.745Z,10.20
2022-12-29T02:29:28.652Z,10.20
2022-12-29T02:32:08.991Z,10.30
2022-12-29T02:34:54.203Z,10.30
2022-12-29T02:37:40.423Z,10.30
2022-12-29T02:40:15.512Z,10.30
2022-12-29T02:42:48.010Z,10.30
2022-12-29T02:45:27.195Z,10.30
2022-12-29T02:48:12.343Z,10.20
2022-12-29T02:50:42.060Z,10.40
2022-12-29T02:53:12.039Z,10.50
2022-12-29T02:55:38.861Z,10.50
2022-12-29T02:58:16.836Z,10.60
2022-12-29T03:00:53.696Z,10.70
2022-12-29T03:03:29.493Z,10.70
2022-12-29T03:06:09.469Z,10.80
2022-12-29T03:08:49.425Z,10.80
2022-12-29T03:11:35.186Z,10.90
2022-12-29T03:14:50.185Z,10.90
2022-12-29T03:17:38.885Z,11.00
2022-12-29T03:20:08.635Z,11.00
2022-12-29T03:22:42.033Z,11.10
2022-12-29T03:25:17.275Z,11.10
2022-12-29T03:27:50.681Z,10.90
2022-12-29T03:30:19.581Z,10.50
2022-12-29T03:32:56.811Z,10.30
2022-12-29T03:35:28.037Z,10.10
2022-12-29T03:38:28.245Z,10.00
2022-12-29T03:40:57.625Z,10.10
2022-12-29T03:43:26.702Z,10.20
2022-12-29T03:45:53.589Z,10.20
2022-12-29T03:48:20.484Z,10.20
2022-12-29T03:50:49.404Z,10.20
2022-12-29T03:53:17.023Z,10.30
2022-12-29T03:55:43.993Z,10.30
2022-12-29T03:58:12.081Z,10.40
2022-12-29T04:00:51.183Z,10.30
2022-12-29T04:03:18.690Z,10.30
2022-12-29T04:05:45.575Z,10.30
2022-12-29T04:08:12.578Z,10.30
2022-12-29T04:10:39.880Z,10.30
2022-12-29T04:13:07.501Z,10.10
2022-12-29T04:15:34.487Z,10.00
2022-12-29T04:18:01.985Z,10.10
2022-12-29T04:20:48.104Z,10.00
2022-12-29T04:23:16.417Z,10.00
2022-12-29T04:25:48.920Z,9.90
2022-12-29T04:28:16.886Z,10.00
2022-12-29T04:30:57.555Z,9.90
2022-12-29T04:33:27.992Z,10.00
2022-12-29T04:35:55.467Z,10.00
2022-12-29T04:38:24.099Z,10.20
2022-12-29T04:40:51.636Z,10.10
2022-12-29T04:43:22.680Z,10.20
2022-12-29T04:46:07.964Z,10.40
2022-12-29T04:49:09.380Z,10.50
2022-12-29T04:51:48.555Z,10.60
2022-12-29T04:54:16.763Z,10.60
2022-12-29T04:56:47.990Z,10.70
2022-12-29T04:59:17.037Z,10.80
2022-12-29T05:01:47.760Z,11.00
2022-12-29T05:04:14.679Z,11.10
2022-12-29T05:06:42.995Z,11.10
2022-12-29T05:09:10.256Z,11.10
2022-12-29T05:11:37.157Z,11.10
2022-12-29T05:14:04.331Z,11.10
2022-12-29T05:16:31.410Z,11.20
2022-12-29T05:18:58.334Z,11.30
2022-12-29T05:21:25.690Z,11.30
2022-12-29T05:23:52.537Z,11.50
2022-12-29T05:26:19.909Z,11.60
2022-12-29T05:29:02.521Z,11.60
2022-12-29T05:31:29.438Z,11.80
2022-12-29T05:33:56.372Z,11.80
2022-12-29T05:36:23.517Z,11.90
2022-12-29T05:38:54.291Z,11.90
2022-12-29T05:41:21.255Z,12.00
2022-12-29T05:43:59.740Z,12.00
2022-12-29T05:46:50.451Z,12.00
2022-12-29T05:49:21.243Z,11.80
2022-12-29T05:52:13.948Z,11.70
2022-12-29T05:54:41.484Z,11.70
2022-12-29T05:57:12.627Z,11.90
2022-12-29T05:59:40.849Z,11.90
2022-12-29T06:02:07.845Z,12.00
2022-12-29T06:04:35.285Z,12.10
2022-12-29T06:07:02.822Z,12.10
2022-12-29T06:09:39.104Z,12.10
2022-12-29T06:12:09.471Z,12.10
2022-12-29T06:14:37.464Z,12.20
2022-12-29T06:17:05.148Z,12.30
2022-12-29T06:19:33.290Z,12.20
2022-12-29T06:22:00.231Z,12.30
2022-12-29T06:24:28.458Z,12.20
2022-12-29T06:26:55.305Z,12.20
2022-12-29T06:29:22.256Z,12.20
2022-12-29T06:31:50.346Z,12.20
2022-12-29T06:34:17.372Z,12.20
2022-12-29T06:36:44.237Z,12.20
2022-12-29T06:39:11.606Z,12.20
2022-12-29T06:41:41.076Z,12.20
2022-12-29T06:44:28.128Z,12.30
2022-12-29T06:47:01.277Z,12.30
2022-12-29T06:49:28.071Z,12.30
2022-12-29T06:51:54.923Z,12.30
2022-12-29T06:54:21.708Z,12.40
2022-12-29T06:56:48.547Z,12.40
2022-12-29T06:59:15.425Z,12.40
2022-12-29T07:01:42.270Z,12.40
2022-12-29T07:04:09.254Z,12.40
2022-12-29T07:06:36.105Z,12.50
2022-12-29T07:09:02.910Z,12.40
2022-12-29T07:11:29.821Z,12.40
2022-12-29T07:13:57.208Z,12.50
2022-12-29T07:16:24.132Z,12.50
2022-12-29T07:18:51.167Z,12.60
2022-12-29T07:21:18.239Z,12.60
2022-12-29T07:23:45.101Z,12.70
2022-12-29T07:26:13.151Z,12.70
2022-12-29T07:28:40.209Z,12.60
2022-12-29T07:31:07.395Z,12.60
2022-12-29T07:33:34.260Z,12.70
2022-12-29T07:36:01.244Z,12.70
2022-12-29T07:38:28.129Z,12.70
2022-12-29T07:40:57.623Z,12.70
2022-12-29T07:43:24.445Z,12.70
2022-12-29T07:46:19.039Z,12.70
2022-12-29T07:48:58.049Z,12.40
2022-12-29T07:51:24.917Z,12.20
2022-12-29T07:53:51.713Z,12.00
2022-12-29T07:56:18.549Z,11.60
2022-12-29T07:58:45.456Z,11.60
2022-12-29T08:01:12.269Z,11.50
2022-12-29T08:03:40.789Z,11.40
2022-12-29T08:06:09.846Z,11.40
2022-12-29T08:08:36.627Z,11.40
2022-12-29T08:11:03.603Z,11.40
2022-12-29T08:13:30.452Z,11.30
2022-12-29T08:15:58.850Z,11.20
2022-12-29T08:18:25.844Z,11.20
2022-12-29T08:20:55.530Z,11.40
2022-12-29T08:23:22.863Z,11.30
2022-12-29T08:25:57.579Z,11.30
2022-12-29T08:28:24.519Z,11.30
2022-12-29T08:30:51.377Z,11.30
2022-12-29T08:33:18.455Z,11.40
2022-12-29T08:35:45.480Z,11.40
2022-12-29T08:38:14.935Z,11.70
2022-12-29T08:40:41.791Z,11.70
2022-12-29T08:43:08.884Z,11.90
2022-12-29T08:45:35.857Z,12.40
2022-12-29T08:48:02.785Z,12.70
2022-12-29T08:50:29.648Z,12.80
2022-12-29T08:52:56.500Z,12.90
2022-12-29T08:55:23.341Z,12.90
2022-12-29T08:57:53.143Z,13.00
2022-12-29T09:00:21.708Z,13.00
2022-12-29T09:02:48.846Z,13.10
2022-12-29T09:05:15.927Z,13.20
2022-12-29T09:07:42.933Z,13.30
2022-12-29T09:10:09.992Z,13.20
2022-12-29T09:12:37.064Z,13.30
2022-12-29T09:15:04.694Z,13.30
2022-12-29T09:17:47.056Z,13.30
2022-12-29T09:20:14.972Z,13.30
2022-12-29T09:22:42.279Z,13.30
2022-12-29T09:25:10.176Z,13.40
2022-12-29T09:27:37.533Z,13.30
2022-12-29T09:30:06.966Z,13.30
2022-12-29T09:32:36.866Z,13.30
2022-12-29T09:35:06.079Z,13.30
2022-12-29T09:37:33.271Z,13.20
2022-12-29T09:40:00.217Z,13.20
2022-12-29T09:42:44.973Z,13.10
2022-12-29T09:45:11.748Z,13.20
2022-12-29T09:47:38.873Z,13.30
2022-12-29T09:50:10.590Z,13.30
2022-12-29T09:52:40.963Z,13.30
2022-12-29T09:55:14.468Z,12.90
2022-12-29T09:57:45.047Z,12.50
2022-12-29T10:00:17.804Z,12.30
2022-12-29T10:02:47.467Z,12.20
2022-12-29T10:05:20.453Z,12.30
2022-12-29T10:07:56.352Z,12.40
2022-12-29T10:10:32.621Z,12.30
2022-12-29T10:13:19.843Z,12.00
2022-12-29T10:16:05.252Z,11.90
2022-12-29T10:18:41.084Z,11.80
2022-12-29T10:21:28.581Z,11.50
2022-12-29T10:23:57.091Z,11.50
2022-12-29T10:26:36.998Z,11.30
2022-12-29T10:29:07.987Z,11.40
2022-12-29T10:31:50.271Z,11.80
2022-12-29T10:34:22.870Z,12.10
2022-12-29T10:36:51.885Z,12.10
2022-12-29T10:39:31.863Z,11.90
2022-12-29T10:42:04.249Z,11.80
2022-12-29T10:44:32.299Z,12.10
2022-12-29T10:47:01.738Z,12.30
2022-12-29T10:49:29.900Z,12.30
2022-12-29T10:51:59.181Z,12.40
2022-12-29T10:54:40.683Z,12.30
2022-12-29T10:57:14.567Z,12.30
2022-12-29T10:59:42.584Z,12.30
2022-12-29T11:02:12.259Z,12.10
2022-12-29T11:04:57.759Z,11.90
2022-12-29T11:07:27.383Z,11.80
2022-12-29T11:09:55.027Z,11.60
2022-12-29T11:12:26.301Z,11.40
2022-12-29T11:15:11.444Z,11.40
2022-12-29T11:17:45.203Z,11.30
2022-12-29T11:20:32.396Z,11.10
2022-12-29T11:23:00.588Z,11.00
2022-12-29T11:25:27.792Z,10.80
2022-12-29T11:28:02.146Z,10.60
2022-12-29T11:30:30.415Z,10.60
2022-12-29T11:32:57.690Z,10.50
2022-12-29T11:35:32.199Z,10.60
2022-12-29T11:37:59.645Z,10.70
2022-12-29T11:40:27.016Z,10.80
2022-12-29T11:42:58.426Z,10.70
2022-12-29T11:45:25.289Z,10.90
2022-12-29T11:47:59.971Z,10.90
2022-12-29T11:50:33.743Z,11.00
2022-12-29T11:53:02.463Z,11.40
2022-12-29T11:55:29.951Z,11.60
2022-12-29T11:57:58.275Z,11.90
2022-12-29T12:00:26.773Z,11.90
2022-12-29T12:02:53.573Z,11.80
2022-12-29T12:05:22.322Z,11.80
2022-12-29T12:08:09.428Z,11.80
2022-12-29T12:10:43.412Z,11.90
2022-12-29T12:13:32.924Z,12.00
2022-12-29T12:16:10.211Z,12.20
2022-12-29T12:18:37.180Z,12.70
2022-12-29T12:21:10.984Z,13.10
2022-12-29T12:23:43.286Z,13.40
2022-12-29T12:26:14.810Z,13.50
2022-12-29T12:28:41.962Z,13.40
2022-12-29T12:31:37.856Z,13.30
2022-12-29T12:34:07.844Z,13.10
2022-12-29T12:36:40.844Z,12.90
2022-12-29T12:39:12.175Z,12.80
2022-12-29T12:42:01.863Z,12.90
2022-12-29T12:44:33.760Z,12.90
2022-12-29T12:47:01.321Z,12.80
2022-12-29T12:49:46.629Z,12.80
2022-12-29T12:52:16.604Z,13.10
2022-12-29T12:55:03.212Z,13.20
2022-12-29T12:57:43.446Z,13.10
2022-12-29T13:00:10.563Z,12.90
2022-12-29T13:02:46.585Z,12.90
2022-12-29T13:05:29.016Z,12.80
2022-12-29T13:08:02.067Z,12.80
2022-12-29T13:10:35.979Z,13.00
2022-12-29T13:13:11.969Z,13.10
2022-12-29T13:15:57.679Z,13.10
2022-12-29T13:18:33.297Z,13.20
2022-12-29T13:21:04.720Z,13.10
2022-12-29T13:23:45.397Z,13.20
2022-12-29T13:26:18.200Z,13.20
2022-12-29T13:28:50.822Z,13.30
2022-12-29T13:31:37.958Z,13.40
2022-12-29T13:34:13.303Z,13.40
2022-12-29T13:36:48.780Z,13.50
2022-12-29T13:39:48.777Z,13.50
2022-12-29T13:42:17.864Z,13.40
2022-12-29T13:44:46.870Z,13.40
2022-12-29T13:47:16.492Z,13.20
2022-12-29T13:49:44.324Z,13.20
2022-12-29T13:52:31.577Z,13.10
2022-12-29T13:55:03.239Z,13.00
2022-12-29T13:57:35.920Z,12.90
2022-12-29T14:00:12.370Z,12.80
2022-12-29T14:02:46.028Z,12.80
2022-12-29T14:05:33.444Z,12.70
2022-12-29T14:08:01.991Z,12.60
2022-12-29T14:10:29.182Z,12.60
2022-12-29T14:13:23.044Z,12.60
2022-12-29T14:15:54.969Z,12.50
2022-12-29T14:18:26.126Z,12.30
2022-12-29T14:20:54.758Z,11.90
2022-12-29T14:23:41.301Z,11.40
2022-12-29T14:26:08.133Z,11.00
2022-12-29T14:28:48.447Z,10.60
2022-12-29T14:31:35.997Z,10.40
2022-12-29T14:34:09.781Z,10.30
2022-12-29T14:36:54.704Z,10.20
2022-12-29T14:39:36.995Z,10.10
2022-12-29T14:42:09.981Z,10.10
2022-12-29T14:44:51.890Z,10.00
2022-12-29T14:47:27.546Z,10.00
2022-12-29T14:49:55.487Z,9.90
2022-12-29T14:52:25.511Z,9.80
2022-12-29T14:54:53.500Z,9.70
2022-12-29T14:57:22.838Z,9.60
2022-12-29T14:59:53.804Z,9.50
2022-12-29T15:02:23.119Z,9.50
2022-12-29T15:04:50.169Z,9.50
2022-12-29T15:07:19.645Z,9.50
2022-12-29T15:09:51.857Z,9.40
2022-12-29T15:12:22.209Z,9.40
2022-12-29T15:14:53.119Z,9.40
2022-12-29T15:17:30.758Z,9.40
2022-12-29T15:19:59.043Z,9.30
2022-12-29T15:22:26.648Z,9.40
2022-12-29T15:24:54.510Z,9.30
2022-12-29T15:27:22.792Z,9.30
2022-12-29T15:29:57.055Z,9.20
2022-12-29T15:32:25.598Z,9.20
2022-12-29T15:34:53.851Z,9.20
2022-12-29T15:37:28.067Z,9.20
2022-12-29T15:39:55.959Z,9.20
2022-12-29T15:42:41.276Z,9.20
2022-12-29T15:45:12.107Z,9.20
2022-12-29T15:47:39.509Z,9.20
2022-12-29T15:50:08.914Z,9.20
2022-12-29T15:52:36.268Z,9.20
2022-12-29T15:55:03.548Z,9.10
2022-12-29T15:57:31.697Z,9.20
2022-12-29T15:59:58.633Z,9.20
2022-12-29T16:02:26.309Z,9.20
2022-12-29T16:05:17.595Z,9.20
2022-12-29T16:07:52.540Z,9.10
2022-12-29T16:10:26.531Z,9.10
2022-12-29T16:12:53.752Z,9.10
2022-12-29T16:15:20.597Z,9.00
2022-12-29T16:17:48.511Z,9.00
2022-12-29T16:20:19.824Z,8.80
2022-12-29T16:22:48.609Z,8.70
2022-12-29T16:25:15.434Z,8.70
2022-12-29T16:27:43.325Z,8.60
2022-12-29T16:30:29.368Z,8.60
2022-12-29T16:33:01.756Z,8.60
2022-12-29T16:35:46.597Z,8.50
2022-12-29T16:38:15.632Z,8.50
2022-12-29T16:40:54.940Z,8.50
2022-12-29T16:43:32.680Z,8.60
2022-12-29T16:45:59.925Z,8.60
2022-12-29T16:48:28.655Z,8.60
2022-12-29T16:51:03.742Z,8.70
2022-12-29T16:53:40.523Z,8.70
2022-12-29T16:56:16.216Z,8.70
2022-12-29T16:58:49.112Z,8.70
2022-12-29T17:01:20.198Z,8.80
2022-12-29T17:03:50.568Z,8.80
2022-12-29T17:06:19.077Z,8.80
2022-12-29T17:08:46.628Z,8.80
2022-12-29T17:11:42.388Z,8.80
2022-12-29T17:14:18.331Z,8.70
2022-12-29T17:16:45.215Z,8.70
2022-12-29T17:19:19.156Z,8.70
2022-12-29T17:21:46.160Z,8.70
2022-12-29T17:24:19.689Z,8.70
2022-12-29T17:26:48.661Z,8.70
2022-12-29T17:29:20.972Z,8.60
2022-12-29T17:31:47.992Z,8.70
2022-12-29T17:34:15.142Z,8.70
2022-12-29T17:36:41.970Z,8.70
2022-12-29T17:39:09.412Z,8.60
2022-12-29T17:41:36.877Z,8.70
2022-12-29T17:44:03.821Z,8.70
2022-12-29T17:46:30.765Z,8.70
2022-12-29T17:48:58.060Z,8.60
2022-12-29T17:51:24.889Z,8.70
2022-12-29T17:53:52.221Z,8.70
2022-12-29T17:56:19.068Z,8.60
2022-12-29T17:58:47.011Z,8.60
2022-12-29T18:01:13.913Z,8.80
2022-12-29T18:03:41.266Z,8.70
2022-12-29T18:06:08.647Z,8.60
2022-12-29T18:08:36.373Z,8.70
2022-12-29T18:11:04.147Z,8.70
2022-12-29T18:13:43.726Z,8.70
2022-12-29T18:16:13.738Z,8.70
2022-12-29T18:18:40.634Z,8.70
2022-12-29T18:21:14.311Z,8.70
2022-12-29T18:23:42.019Z,8.70
2022-12-29T18:26:11.568Z,8.70
2022-12-29T18:28:38.443Z,8.70
2022-12-29T18:31:14.201Z,8.70
2022-12-29T18:33:41.029Z,8.70
2022-12-29T18:36:11.303Z,8.70
2022-12-29T18:38:38.391Z,8.60
2022-12-29T18:41:05.459Z,8.60
2022-12-29T18:43:32.272Z,8.60
2022-12-29T18:45:59.287Z,8.60
2022-12-29T18:48:26.200Z,8.50
2022-12-29T18:50:53.383Z,8.50
2022-12-29T18:53:21.493Z,8.50
2022-12-29T18:55:48.329Z,8.50
2022-12-29T18:58:15.240Z,8.50
2022-12-29T19:00:42.552Z,8.40
2022-12-29T19:03:12.300Z,8.40
2022-12-29T19:05:40.563Z,8.40
2022-12-29T19:08:08.579Z,8.40
2022-12-29T19:10:35.468Z,8.40
2022-12-29T19:13:02.473Z,8.30
2022-12-29T19:15:31.023Z,8.30
2022-12-29T19:18:41.734Z,8.30
2022-12-29T19:20:50.159Z,8.30
2022-12-29T19:23:18.152Z,8.30
2022-12-29T19:25:45.527Z,8.20
2022-12-29T19:28:17.447Z,8.20
2022-12-29T19:30:47.178Z,8.20
2022-12-29T19:33:18.031Z,8.20
2022-12-29T19:35:44.938Z,8.20
2022-12-29T19:38:12.674Z,8.10
2022-12-29T19:40:43.742Z,8.20
2022-12-29T19:43:11.913Z,8.20
2022-12-29T19:45:42.392Z,8.20
2022-12-29T19:48:12.124Z,8.30
2022-12-29T19:50:38.966Z,8.20
2022-12-29T19:53:05.988Z,8.30
2022-12-29T19:55:35.741Z,8.20
2022-12-29T19:58:02.820Z,8.10
2022-12-29T20:00:29.879Z,8.10
2022-12-29T20:02:56.948Z,8.20
2022-12-29T20:05:23.878Z,8.10
2022-12-29T20:07:50.770Z,8.10
2022-12-29T20:10:17.620Z,8.00
2022-12-29T20:12:44.409Z,8.00
2022-12-29T20:15:11.780Z,8.00
2022-12-29T20:18:11.803Z,8.00
2022-12-29T20:20:25.443Z,8.00
2022-12-29T20:22:52.229Z,8.00
2022-12-29T20:25:44.197Z,8.00
2022-12-29T20:28:06.104Z,8.00
2022-12-29T20:30:32.934Z,8.00
2022-12-29T20:33:04.649Z,7.90
2022-12-29T20:35:34.582Z,7.90
2022-12-29T20:38:01.473Z,7.90
2022-12-29T20:40:28.322Z,7.90
2022-12-29T20:42:55.378Z,7.80
2022-12-29T20:45:22.258Z,7.90
2022-12-29T20:47:49.087Z,7.80
2022-12-29T20:50:15.985Z,7.90
2022-12-29T20:52:42.874Z,8.00
2022-12-29T20:55:09.817Z,7.90
2022-12-29T20:58:05.619Z,7.90
2022-12-29T21:00:23.548Z,7.80
2022-12-29T21:02:50.799Z,7.80
2022-12-29T21:05:25.796Z,7.90
2022-12-29T21:07:53.565Z,7.90
2022-12-29T21:10:22.938Z,7.90
2022-12-29T21:12:50.186Z,7.90
2022-12-29T21:15:17.070Z,7.90
2022-12-29T21:17:44.264Z,8.00
2022-12-29T21:20:20.034Z,8.00
2022-12-29T21:22:47.579Z,7.90
2022-12-29T21:25:14.684Z,7.90
2022-12-29T21:27:44.547Z,7.90
2022-12-29T21:30:11.939Z,8.00
2022-12-29T21:32:39.063Z,7.90
2022-12-29T21:35:06.289Z,8.00
2022-12-29T21:37:33.115Z,8.00
2022-12-29T21:39:59.901Z,8.00
2022-12-29T21:42:27.747Z,8.00
2022-12-29T21:45:19.890Z,8.00
2022-12-29T21:48:05.773Z,7.90
2022-12-29T21:50:32.654Z,8.00
2022-12-29T21:52:59.458Z,7.90
2022-12-29T21:55:26.382Z,8.00
2022-12-29T21:58:11.670Z,8.00
2022-12-29T22:00:57.397Z,8.00
2022-12-29T22:03:42.973Z,8.00
2022-12-29T22:06:28.970Z,8.00
2022-12-29T22:09:14.608Z,8.00
2022-12-29T22:12:00.241Z,8.00
2022-12-29T22:14:27.059Z,8.00
2022-12-29T22:16:53.965Z,7.90
2022-12-29T22:19:20.888Z,7.90
2022-12-29T22:21:47.836Z,7.90
2022-12-29T22:24:14.661Z,7.90
2022-12-29T22:26:41.690Z,7.90
2022-12-29T22:29:08.529Z,7.90
2022-12-29T22:31:35.490Z,8.00
2022-12-29T22:34:03.099Z,8.00
2022-12-29T22:36:30.516Z,7.80
2022-12-29T22:38:57.499Z,7.70
2022-12-29T22:41:24.466Z,8.00
2022-12-29T22:43:51.335Z,7.90
2022-12-29T22:46:18.230Z,8.00
2022-12-29T22:48:45.287Z,7.90
2022-12-29T22:51:12.196Z,7.90
2022-12-29T22:53:40.675Z,7.90
2022-12-29T22:56:11.844Z,7.90
2022-12-29T22:58:42.604Z,8.00
2022-12-29T23:01:10.189Z,7.90
2022-12-29T23:03:37.446Z,8.00
2022-12-29T23:06:05.309Z,8.00
2022-12-29T23:08:33.864Z,8.00
2022-12-29T23:11:01.340Z,8.00
2022-12-29T23:13:28.191Z,7.90
2022-12-29T23:15:55.058Z,7.90
2022-12-29T23:18:22.088Z,8.00
2022-12-29T23:20:49.434Z,8.00
2022-12-29T23:23:36.907Z,7.90
2022-12-29T23:26:03.804Z,7.90
2022-12-29T23:28:30.663Z,7.80
2022-12-29T23:30:57.614Z,7.80
2022-12-29T23:33:24.500Z,7.80
2022-12-29T23:35:51.390Z,7.80
2022-12-29T23:38:19.708Z,7.70
2022-12-29T23:40:46.522Z,7.70
2022-12-29T23:43:13.442Z,7.80
2022-12-29T23:45:42.639Z,7.70
2022-12-29T23:48:13.353Z,7.60
2022-12-29T23:50:41.372Z,7.70
2022-12-29T23:53:08.726Z,7.60
2022-12-29T23:55:36.329Z,7.60
2022-12-29T23:58:03.215Z,7.60
